sensor_id;sensor_type;location;lat;lon;timestamp;temperature;humidity
39951;DHT22;25629;51.444;-2.606;2022-08-05T00:01:13;17.50;92.30
39951;DHT22;25629;51.444;-2.606;2022-08-05T00:03:39;17.50;92.30
39951;DHT22;25629;51.444;-2.606;2022-08-05T00:06:05;17.50;92.30
39951;DHT22;25629;51.444;-2.606;2022-08-05T00:08:31;17.50;92.20
39951;DHT22;25629;51.444;-2.606;2022-08-05T00:10:57;17.50;92.20
39951;DHT22;25629;51.444;-2.606;2022-08-05T00:13:22;17.50;92.50
39951;DHT22;25629;51.444;-2.606;2022-08-05T00:15:48;17.50;92.40
39951;DHT22;25629;51.444;-2.606;2022-08-05T00:18:14;17.50;92.30
39951;DHT22;25629;51.444;-2.606;2022-08-05T00:20:39;17.40;92.50
39951;DHT22;25629;51.444;-2.606;2022-08-05T00:23:05;17.40;92.80
39951;DHT22;25629;51.444;-2.606;2022-08-05T00:25:30;17.50;92.50
39951;DHT22;25629;51.444;-2.606;2022-08-05T00:27:56;17.50;92.60
39951;DHT22;25629;51.444;-2.606;2022-08-05T00:30:21;17.50;92.50
39951;DHT22;25629;51.444;-2.606;2022-08-05T00:32:47;17.50;92.40
39951;DHT22;25629;51.444;-2.606;2022-08-05T00:35:14;17.50;92.50
39951;DHT22;25629;51.444;-2.606;2022-08-05T00:37:40;17.40;92.50
39951;DHT22;25629;51.444;-2.606;2022-08-05T00:40:05;17.40;92.60
39951;DHT22;25629;51.444;-2.606;2022-08-05T00:42:32;17.40;92.60
39951;DHT22;25629;51.444;-2.606;2022-08-05T00:44:58;17.30;93.00
39951;DHT22;25629;51.444;-2.606;2022-08-05T00:47:23;17.40;93.20
39951;DHT22;25629;51.444;-2.606;2022-08-05T00:49:49;17.40;92.80
39951;DHT22;25629;51.444;-2.606;2022-08-05T00:52:14;17.30;92.80
39951;DHT22;25629;51.444;-2.606;2022-08-05T00:54:40;17.30;92.90
39951;DHT22;25629;51.444;-2.606;2022-08-05T00:57:06;17.20;92.90
39951;DHT22;25629;51.444;-2.606;2022-08-05T00:59:31;17.10;93.00
39951;DHT22;25629;51.444;-2.606;2022-08-05T01:01:57;17.20;93.10
39951;DHT22;25629;51.444;-2.606;2022-08-05T01:04:22;17.20;93.10
39951;DHT22;25629;51.444;-2.606;2022-08-05T01:06:48;17.10;93.40
39951;DHT22;25629;51.444;-2.606;2022-08-05T01:09:13;17.10;93.30
39951;DHT22;25629;51.444;-2.606;2022-08-05T01:11:39;17.10;93.20
39951;DHT22;25629;51.444;-2.606;2022-08-05T01:16:51;17.00;93.20
39951;DHT22;25629;51.444;-2.606;2022-08-05T01:29:27;16.60;93.80
39951;DHT22;25629;51.444;-2.606;2022-08-05T01:31:54;16.50;93.90
39951;DHT22;25629;51.444;-2.606;2022-08-05T01:37:01;16.50;94.20
39951;DHT22;25629;51.444;-2.606;2022-08-05T01:39:28;16.50;94.50
39951;DHT22;25629;51.444;-2.606;2022-08-05T01:41:55;16.40;94.40
39951;DHT22;25629;51.444;-2.606;2022-08-05T01:44:21;16.40;94.50
39951;DHT22;25629;51.444;-2.606;2022-08-05T01:46:47;16.40;94.50
39951;DHT22;25629;51.444;-2.606;2022-08-05T01:49:17;16.30;94.70
39951;DHT22;25629;51.444;-2.606;2022-08-05T01:51:43;16.20;94.80
39951;DHT22;25629;51.444;-2.606;2022-08-05T01:54:10;16.20;94.90
39951;DHT22;25629;51.444;-2.606;2022-08-05T01:56:38;16.30;95.10
39951;DHT22;25629;51.444;-2.606;2022-08-05T01:59:05;16.30;95.30
39951;DHT22;25629;51.444;-2.606;2022-08-05T02:01:32;16.30;95.80
39951;DHT22;25629;51.444;-2.606;2022-08-05T02:03:58;16.30;95.60
39951;DHT22;25629;51.444;-2.606;2022-08-05T02:06:24;16.20;95.70
39951;DHT22;25629;51.444;-2.606;2022-08-05T02:08:50;16.20;95.80
39951;DHT22;25629;51.444;-2.606;2022-08-05T02:11:16;16.10;96.00
39951;DHT22;25629;51.444;-2.606;2022-08-05T02:16:15;16.10;96.30
39951;DHT22;25629;51.444;-2.606;2022-08-05T02:18:44;16.00;96.40
39951;DHT22;25629;51.444;-2.606;2022-08-05T02:21:23;16.10;96.60
39951;DHT22;25629;51.444;-2.606;2022-08-05T02:23:51;16.10;96.70
39951;DHT22;25629;51.444;-2.606;2022-08-05T02:26:22;15.90;96.90
39951;DHT22;25629;51.444;-2.606;2022-08-05T02:28:48;15.90;97.10
39951;DHT22;25629;51.444;-2.606;2022-08-05T02:31:16;15.80;97.30
39951;DHT22;25629;51.444;-2.606;2022-08-05T02:33:48;15.80;97.40
39951;DHT22;25629;51.444;-2.606;2022-08-05T02:36:15;15.70;97.60
39951;DHT22;25629;51.444;-2.606;2022-08-05T02:38:44;15.60;97.80
39951;DHT22;25629;51.444;-2.606;2022-08-05T02:41:10;15.60;98.10
39951;DHT22;25629;51.444;-2.606;2022-08-05T02:43:36;15.50;98.30
39951;DHT22;25629;51.444;-2.606;2022-08-05T02:46:03;15.50;98.70
39951;DHT22;25629;51.444;-2.606;2022-08-05T02:48:28;15.50;98.80
39951;DHT22;25629;51.444;-2.606;2022-08-05T02:50:58;15.50;99.00
39951;DHT22;25629;51.444;-2.606;2022-08-05T02:53:25;15.50;99.10
39951;DHT22;25629;51.444;-2.606;2022-08-05T02:55:51;15.50;99.30
39951;DHT22;25629;51.444;-2.606;2022-08-05T02:58:18;15.40;99.50
39951;DHT22;25629;51.444;-2.606;2022-08-05T03:00:45;15.40;99.60
39951;DHT22;25629;51.444;-2.606;2022-08-05T03:03:15;15.40;99.80
39951;DHT22;25629;51.444;-2.606;2022-08-05T03:05:41;15.40;99.90
39951;DHT22;25629;51.444;-2.606;2022-08-05T03:08:08;15.30;99.90
39951;DHT22;25629;51.444;-2.606;2022-08-05T03:10:33;15.30;99.90
39951;DHT22;25629;51.444;-2.606;2022-08-05T03:12:59;15.20;99.90
39951;DHT22;25629;51.444;-2.606;2022-08-05T03:15:25;15.20;99.90
39951;DHT22;25629;51.444;-2.606;2022-08-05T03:17:51;15.20;99.90
39951;DHT22;25629;51.444;-2.606;2022-08-05T03:20:17;15.20;99.90
39951;DHT22;25629;51.444;-2.606;2022-08-05T03:22:42;15.10;99.90
39951;DHT22;25629;51.444;-2.606;2022-08-05T03:25:08;15.10;99.90
39951;DHT22;25629;51.444;-2.606;2022-08-05T03:27:34;15.00;99.90
39951;DHT22;25629;51.444;-2.606;2022-08-05T03:29:59;15.00;99.90
39951;DHT22;25629;51.444;-2.606;2022-08-05T03:32:25;14.90;99.90
39951;DHT22;25629;51.444;-2.606;2022-08-05T03:34:51;14.90;99.90
39951;DHT22;25629;51.444;-2.606;2022-08-05T03:37:17;15.00;99.90
39951;DHT22;25629;51.444;-2.606;2022-08-05T03:39:55;15.00;99.90
39951;DHT22;25629;51.444;-2.606;2022-08-05T03:42:21;14.90;99.90
39951;DHT22;25629;51.444;-2.606;2022-08-05T03:44:47;15.00;99.90
39951;DHT22;25629;51.444;-2.606;2022-08-05T03:47:13;14.90;99.90
39951;DHT22;25629;51.444;-2.606;2022-08-05T03:49:38;14.90;99.90
39951;DHT22;25629;51.444;-2.606;2022-08-05T03:52:05;14.90;99.90
39951;DHT22;25629;51.444;-2.606;2022-08-05T03:54:53;14.90;99.90
39951;DHT22;25629;51.444;-2.606;2022-08-05T03:57:21;14.90;99.90
39951;DHT22;25629;51.444;-2.606;2022-08-05T03:59:54;14.90;99.90
39951;DHT22;25629;51.444;-2.606;2022-08-05T04:02:24;14.80;99.90
39951;DHT22;25629;51.444;-2.606;2022-08-05T04:04:51;14.80;99.90
39951;DHT22;25629;51.444;-2.606;2022-08-05T04:07:17;14.80;99.90
39951;DHT22;25629;51.444;-2.606;2022-08-05T04:09:43;14.80;99.90
39951;DHT22;25629;51.444;-2.606;2022-08-05T04:12:08;14.80;99.90
39951;DHT22;25629;51.444;-2.606;2022-08-05T04:14:34;14.70;99.90
39951;DHT22;25629;51.444;-2.606;2022-08-05T04:17:00;14.70;99.90
39951;DHT22;25629;51.444;-2.606;2022-08-05T04:19:26;14.60;99.90
39951;DHT22;25629;51.444;-2.606;2022-08-05T04:21:52;14.60;99.90
39951;DHT22;25629;51.444;-2.606;2022-08-05T04:24:17;14.50;99.90
39951;DHT22;25629;51.444;-2.606;2022-08-05T04:26:43;14.40;99.90
39951;DHT22;25629;51.444;-2.606;2022-08-05T04:29:09;14.40;99.90
39951;DHT22;25629;51.444;-2.606;2022-08-05T04:31:34;14.30;99.90
39951;DHT22;25629;51.444;-2.606;2022-08-05T04:34:00;14.30;99.90
39951;DHT22;25629;51.444;-2.606;2022-08-05T04:36:25;14.10;99.90
39951;DHT22;25629;51.444;-2.606;2022-08-05T04:38:51;14.10;99.90
39951;DHT22;25629;51.444;-2.606;2022-08-05T04:41:19;14.00;99.90
39951;DHT22;25629;51.444;-2.606;2022-08-05T04:43:44;14.00;99.90
39951;DHT22;25629;51.444;-2.606;2022-08-05T04:46:10;14.00;99.90
39951;DHT22;25629;51.444;-2.606;2022-08-05T04:48:36;14.00;99.90
39951;DHT22;25629;51.444;-2.606;2022-08-05T04:51:01;14.00;99.90
39951;DHT22;25629;51.444;-2.606;2022-08-05T04:53:27;14.00;99.90
39951;DHT22;25629;51.444;-2.606;2022-08-05T04:55:53;14.00;99.90
39951;DHT22;25629;51.444;-2.606;2022-08-05T04:58:19;14.00;99.90
39951;DHT22;25629;51.444;-2.606;2022-08-05T05:00:44;14.00;99.90
39951;DHT22;25629;51.444;-2.606;2022-08-05T05:03:10;14.00;99.90
39951;DHT22;25629;51.444;-2.606;2022-08-05T05:05:36;14.00;99.90
39951;DHT22;25629;51.444;-2.606;2022-08-05T05:08:02;14.00;99.90
39951;DHT22;25629;51.444;-2.606;2022-08-05T05:10:29;13.90;99.90
39951;DHT22;25629;51.444;-2.606;2022-08-05T05:12:54;13.90;99.90
39951;DHT22;25629;51.444;-2.606;2022-08-05T05:15:20;13.90;99.90
39951;DHT22;25629;51.444;-2.606;2022-08-05T05:17:45;13.90;99.90
39951;DHT22;25629;51.444;-2.606;2022-08-05T05:20:12;13.90;99.90
39951;DHT22;25629;51.444;-2.606;2022-08-05T05:22:37;13.90;99.90
39951;DHT22;25629;51.444;-2.606;2022-08-05T05:25:03;13.90;99.90
39951;DHT22;25629;51.444;-2.606;2022-08-05T05:27:30;13.90;99.90
39951;DHT22;25629;51.444;-2.606;2022-08-05T05:29:56;14.00;99.90
39951;DHT22;25629;51.444;-2.606;2022-08-05T05:32:21;14.00;99.90
39951;DHT22;25629;51.444;-2.606;2022-08-05T05:34:47;14.00;99.90
39951;DHT22;25629;51.444;-2.606;2022-08-05T05:37:13;14.00;99.90
39951;DHT22;25629;51.444;-2.606;2022-08-05T05:39:39;14.10;99.90
39951;DHT22;25629;51.444;-2.606;2022-08-05T05:42:05;14.10;99.90
39951;DHT22;25629;51.444;-2.606;2022-08-05T05:44:30;14.20;99.90
39951;DHT22;25629;51.444;-2.606;2022-08-05T05:46:56;14.20;99.90
39951;DHT22;25629;51.444;-2.606;2022-08-05T05:49:21;14.20;99.90
39951;DHT22;25629;51.444;-2.606;2022-08-05T05:51:47;14.30;99.90
39951;DHT22;25629;51.444;-2.606;2022-08-05T05:54:12;14.30;99.90
39951;DHT22;25629;51.444;-2.606;2022-08-05T05:56:38;14.40;99.90
39951;DHT22;25629;51.444;-2.606;2022-08-05T05:59:04;14.50;99.90
39951;DHT22;25629;51.444;-2.606;2022-08-05T06:01:30;14.50;99.90
39951;DHT22;25629;51.444;-2.606;2022-08-05T06:03:56;14.60;99.90
39951;DHT22;25629;51.444;-2.606;2022-08-05T06:06:21;14.70;99.90
39951;DHT22;25629;51.444;-2.606;2022-08-05T06:08:47;14.80;99.90
39951;DHT22;25629;51.444;-2.606;2022-08-05T06:11:13;14.90;99.90
39951;DHT22;25629;51.444;-2.606;2022-08-05T06:13:38;15.00;99.90
39951;DHT22;25629;51.444;-2.606;2022-08-05T06:16:04;15.10;99.90
39951;DHT22;25629;51.444;-2.606;2022-08-05T06:18:29;15.20;99.90
39951;DHT22;25629;51.444;-2.606;2022-08-05T06:20:55;15.30;99.90
39951;DHT22;25629;51.444;-2.606;2022-08-05T06:23:20;15.40;99.90
39951;DHT22;25629;51.444;-2.606;2022-08-05T06:25:46;15.50;99.90
39951;DHT22;25629;51.444;-2.606;2022-08-05T06:28:11;15.50;99.90
39951;DHT22;25629;51.444;-2.606;2022-08-05T06:30:37;15.50;99.90
39951;DHT22;25629;51.444;-2.606;2022-08-05T06:33:03;15.60;99.90
39951;DHT22;25629;51.444;-2.606;2022-08-05T06:35:28;15.60;99.90
39951;DHT22;25629;51.444;-2.606;2022-08-05T06:37:54;15.70;99.90
39951;DHT22;25629;51.444;-2.606;2022-08-05T06:40:19;15.70;99.90
39951;DHT22;25629;51.444;-2.606;2022-08-05T06:42:45;15.80;99.90
39951;DHT22;25629;51.444;-2.606;2022-08-05T06:45:10;15.90;99.90
39951;DHT22;25629;51.444;-2.606;2022-08-05T06:47:36;16.00;99.90
39951;DHT22;25629;51.444;-2.606;2022-08-05T06:50:02;16.00;99.90
39951;DHT22;25629;51.444;-2.606;2022-08-05T06:52:27;16.10;99.90
39951;DHT22;25629;51.444;-2.606;2022-08-05T06:54:53;16.10;99.90
39951;DHT22;25629;51.444;-2.606;2022-08-05T06:57:18;16.10;99.90
39951;DHT22;25629;51.444;-2.606;2022-08-05T06:59:44;16.10;99.90
39951;DHT22;25629;51.444;-2.606;2022-08-05T07:02:09;16.20;99.90
39951;DHT22;25629;51.444;-2.606;2022-08-05T07:04:35;16.20;99.90
39951;DHT22;25629;51.444;-2.606;2022-08-05T07:07:00;16.30;99.90
39951;DHT22;25629;51.444;-2.606;2022-08-05T07:09:26;16.50;99.90
39951;DHT22;25629;51.444;-2.606;2022-08-05T07:11:52;16.60;99.90
39951;DHT22;25629;51.444;-2.606;2022-08-05T07:14:20;16.70;99.90
39951;DHT22;25629;51.444;-2.606;2022-08-05T07:17:04;16.80;99.90
39951;DHT22;25629;51.444;-2.606;2022-08-05T07:19:30;16.90;99.90
39951;DHT22;25629;51.444;-2.606;2022-08-05T07:21:56;17.00;99.90
39951;DHT22;25629;51.444;-2.606;2022-08-05T07:24:22;17.00;99.90
39951;DHT22;25629;51.444;-2.606;2022-08-05T07:26:48;17.00;99.90
39951;DHT22;25629;51.444;-2.606;2022-08-05T07:29:13;16.90;99.90
39951;DHT22;25629;51.444;-2.606;2022-08-05T07:31:39;16.90;99.90
39951;DHT22;25629;51.444;-2.606;2022-08-05T07:34:05;17.00;99.90
39951;DHT22;25629;51.444;-2.606;2022-08-05T07:36:30;17.00;99.90
39951;DHT22;25629;51.444;-2.606;2022-08-05T07:39:01;17.20;99.90
39951;DHT22;25629;51.444;-2.606;2022-08-05T07:41:27;17.50;99.90
39951;DHT22;25629;51.444;-2.606;2022-08-05T07:43:53;17.60;99.20
39951;DHT22;25629;51.444;-2.606;2022-08-05T07:46:19;17.60;98.80
39951;DHT22;25629;51.444;-2.606;2022-08-05T07:48:44;17.50;98.70
39951;DHT22;25629;51.444;-2.606;2022-08-05T07:51:10;17.50;98.60
39951;DHT22;25629;51.444;-2.606;2022-08-05T07:53:35;17.60;98.50
39951;DHT22;25629;51.444;-2.606;2022-08-05T07:56:04;17.70;98.40
39951;DHT22;25629;51.444;-2.606;2022-08-05T07:58:30;17.80;98.50
39951;DHT22;25629;51.444;-2.606;2022-08-05T08:00:55;18.00;98.80
39951;DHT22;25629;51.444;-2.606;2022-08-05T08:03:21;18.10;98.40
39951;DHT22;25629;51.444;-2.606;2022-08-05T08:05:46;18.30;97.80
39951;DHT22;25629;51.444;-2.606;2022-08-05T08:08:15;18.50;97.50
39951;DHT22;25629;51.444;-2.606;2022-08-05T08:10:41;18.60;97.60
39951;DHT22;25629;51.444;-2.606;2022-08-05T08:13:07;18.70;97.00
39951;DHT22;25629;51.444;-2.606;2022-08-05T08:15:33;18.90;96.60
39951;DHT22;25629;51.444;-2.606;2022-08-05T08:17:58;19.00;96.40
39951;DHT22;25629;51.444;-2.606;2022-08-05T08:20:24;19.20;96.40
39951;DHT22;25629;51.444;-2.606;2022-08-05T08:22:53;19.30;95.90
39951;DHT22;25629;51.444;-2.606;2022-08-05T08:25:20;19.40;95.60
39951;DHT22;25629;51.444;-2.606;2022-08-05T08:27:45;19.40;95.40
39951;DHT22;25629;51.444;-2.606;2022-08-05T08:30:11;19.30;94.50
39951;DHT22;25629;51.444;-2.606;2022-08-05T08:32:37;19.20;95.00
39951;DHT22;25629;51.444;-2.606;2022-08-05T08:35:03;19.20;95.40
39951;DHT22;25629;51.444;-2.606;2022-08-05T08:37:28;19.40;95.20
39951;DHT22;25629;51.444;-2.606;2022-08-05T08:39:54;19.60;94.70
39951;DHT22;25629;51.444;-2.606;2022-08-05T08:42:20;19.60;93.80
39951;DHT22;25629;51.444;-2.606;2022-08-05T08:44:46;19.60;93.90
39951;DHT22;25629;51.444;-2.606;2022-08-05T08:47:12;19.60;93.80
39951;DHT22;25629;51.444;-2.606;2022-08-05T08:49:37;19.80;94.10
39951;DHT22;25629;51.444;-2.606;2022-08-05T08:52:10;19.90;93.60
39951;DHT22;25629;51.444;-2.606;2022-08-05T08:54:37;20.00;93.50
39951;DHT22;25629;51.444;-2.606;2022-08-05T08:57:04;20.20;93.70
39951;DHT22;25629;51.444;-2.606;2022-08-05T08:59:29;20.20;93.00
39951;DHT22;25629;51.444;-2.606;2022-08-05T09:01:55;20.20;92.90
39951;DHT22;25629;51.444;-2.606;2022-08-05T09:04:21;20.00;93.30
39951;DHT22;25629;51.444;-2.606;2022-08-05T09:06:47;20.10;93.40
39951;DHT22;25629;51.444;-2.606;2022-08-05T09:09:12;20.40;93.30
39951;DHT22;25629;51.444;-2.606;2022-08-05T09:11:38;20.40;93.10
39951;DHT22;25629;51.444;-2.606;2022-08-05T09:14:03;20.60;93.30
39951;DHT22;25629;51.444;-2.606;2022-08-05T09:16:30;20.60;93.40
39951;DHT22;25629;51.444;-2.606;2022-08-05T09:18:55;20.50;93.50
39951;DHT22;25629;51.444;-2.606;2022-08-05T09:21:21;20.70;94.00
39951;DHT22;25629;51.444;-2.606;2022-08-05T09:23:48;20.80;93.40
39951;DHT22;25629;51.444;-2.606;2022-08-05T09:26:25;21.00;92.90
39951;DHT22;25629;51.444;-2.606;2022-08-05T09:28:51;21.10;93.00
39951;DHT22;25629;51.444;-2.606;2022-08-05T09:31:18;21.00;93.20
39951;DHT22;25629;51.444;-2.606;2022-08-05T09:33:47;21.30;93.60
39951;DHT22;25629;51.444;-2.606;2022-08-05T09:36:14;21.40;92.00
39951;DHT22;25629;51.444;-2.606;2022-08-05T09:38:54;21.30;92.10
39951;DHT22;25629;51.444;-2.606;2022-08-05T09:41:19;21.20;92.80
39951;DHT22;25629;51.444;-2.606;2022-08-05T09:43:45;21.50;92.70
39951;DHT22;25629;51.444;-2.606;2022-08-05T09:46:24;22.10;92.30
39951;DHT22;25629;51.444;-2.606;2022-08-05T09:48:50;22.10;91.00
39951;DHT22;25629;51.444;-2.606;2022-08-05T09:51:27;21.90;90.90
39951;DHT22;25629;51.444;-2.606;2022-08-05T09:53:54;21.90;90.70
39951;DHT22;25629;51.444;-2.606;2022-08-05T09:56:28;22.10;91.00
39951;DHT22;25629;51.444;-2.606;2022-08-05T09:59:02;22.20;90.60
39951;DHT22;25629;51.444;-2.606;2022-08-05T10:01:28;22.50;90.30
39951;DHT22;25629;51.444;-2.606;2022-08-05T10:03:58;22.90;89.90
39951;DHT22;25629;51.444;-2.606;2022-08-05T10:06:24;23.10;89.60
39951;DHT22;25629;51.444;-2.606;2022-08-05T10:08:51;23.20;88.10
39951;DHT22;25629;51.444;-2.606;2022-08-05T10:11:17;23.10;88.60
39951;DHT22;25629;51.444;-2.606;2022-08-05T10:13:42;23.10;89.00
39951;DHT22;25629;51.444;-2.606;2022-08-05T10:16:28;22.90;88.40
39951;DHT22;25629;51.444;-2.606;2022-08-05T10:18:55;22.20;89.60
39951;DHT22;25629;51.444;-2.606;2022-08-05T10:21:20;21.50;90.60
39951;DHT22;25629;51.444;-2.606;2022-08-05T10:23:46;21.10;91.20
39951;DHT22;25629;51.444;-2.606;2022-08-05T10:26:12;20.80;91.80
39951;DHT22;25629;51.444;-2.606;2022-08-05T10:28:38;21.00;91.90
39951;DHT22;25629;51.444;-2.606;2022-08-05T10:31:04;21.30;91.20
39951;DHT22;25629;51.444;-2.606;2022-08-05T10:33:31;21.40;91.00
39951;DHT22;25629;51.444;-2.606;2022-08-05T10:35:57;21.70;90.80
39951;DHT22;25629;51.444;-2.606;2022-08-05T10:38:24;21.70;90.60
39951;DHT22;25629;51.444;-2.606;2022-08-05T10:45:41;22.60;90.20
39951;DHT22;25629;51.444;-2.606;2022-08-05T10:51:01;23.20;89.10
39951;DHT22;25629;51.444;-2.606;2022-08-05T10:53:41;23.20;88.10
39951;DHT22;25629;51.444;-2.606;2022-08-05T10:56:14;23.50;88.40
39951;DHT22;25629;51.444;-2.606;2022-08-05T11:01:37;24.10;87.30
39951;DHT22;25629;51.444;-2.606;2022-08-05T11:06:28;23.90;86.30
39951;DHT22;25629;51.444;-2.606;2022-08-05T11:09:10;23.70;86.50
39951;DHT22;25629;51.444;-2.606;2022-08-05T11:11:36;23.40;85.60
39951;DHT22;25629;51.444;-2.606;2022-08-05T11:14:03;23.20;86.10
39951;DHT22;25629;51.444;-2.606;2022-08-05T11:16:29;22.90;86.80
39951;DHT22;25629;51.444;-2.606;2022-08-05T11:21:39;23.60;85.60
39951;DHT22;25629;51.444;-2.606;2022-08-05T11:24:07;23.90;84.80
39951;DHT22;25629;51.444;-2.606;2022-08-05T11:26:33;24.10;85.70
39951;DHT22;25629;51.444;-2.606;2022-08-05T11:29:03;24.40;83.40
39951;DHT22;25629;51.444;-2.606;2022-08-05T11:31:29;24.30;83.40
39951;DHT22;25629;51.444;-2.606;2022-08-05T11:33:59;24.00;84.00
39951;DHT22;25629;51.444;-2.606;2022-08-05T11:39:11;24.60;83.00
39951;DHT22;25629;51.444;-2.606;2022-08-05T11:41:37;24.80;81.80
39951;DHT22;25629;51.444;-2.606;2022-08-05T11:44:07;24.10;81.40
39951;DHT22;25629;51.444;-2.606;2022-08-05T11:46:51;23.60;83.70
39951;DHT22;25629;51.444;-2.606;2022-08-05T11:49:18;23.80;85.00
39951;DHT22;25629;51.444;-2.606;2022-08-05T11:51:45;23.90;85.30
39951;DHT22;25629;51.444;-2.606;2022-08-05T11:54:11;23.60;85.60
39951;DHT22;25629;51.444;-2.606;2022-08-05T11:56:44;23.10;84.60
39951;DHT22;25629;51.444;-2.606;2022-08-05T11:59:14;22.60;85.60
39951;DHT22;25629;51.444;-2.606;2022-08-05T12:01:50;22.40;86.10
39951;DHT22;25629;51.444;-2.606;2022-08-05T12:04:16;22.50;87.00
39951;DHT22;25629;51.444;-2.606;2022-08-05T12:06:41;22.80;87.00
39951;DHT22;25629;51.444;-2.606;2022-08-05T12:09:07;22.90;86.90
39951;DHT22;25629;51.444;-2.606;2022-08-05T12:11:33;22.80;85.70
39951;DHT22;25629;51.444;-2.606;2022-08-05T12:14:00;22.90;86.00
39951;DHT22;25629;51.444;-2.606;2022-08-05T12:16:39;22.80;85.80
39951;DHT22;25629;51.444;-2.606;2022-08-05T12:19:05;23.40;86.50
39951;DHT22;25629;51.444;-2.606;2022-08-05T12:21:35;23.60;86.10
39951;DHT22;25629;51.444;-2.606;2022-08-05T12:24:02;23.70;85.80
39951;DHT22;25629;51.444;-2.606;2022-08-05T12:26:39;23.00;85.90
39951;DHT22;25629;51.444;-2.606;2022-08-05T12:29:26;22.70;87.00
39951;DHT22;25629;51.444;-2.606;2022-08-05T12:31:52;22.90;86.20
39951;DHT22;25629;51.444;-2.606;2022-08-05T12:34:18;22.70;86.60
39951;DHT22;25629;51.444;-2.606;2022-08-05T12:36:45;22.80;85.80
39951;DHT22;25629;51.444;-2.606;2022-08-05T12:39:11;23.30;85.90
39951;DHT22;25629;51.444;-2.606;2022-08-05T12:41:37;24.00;84.40
39951;DHT22;25629;51.444;-2.606;2022-08-05T12:46:30;24.70;83.90
39951;DHT22;25629;51.444;-2.606;2022-08-05T12:51:22;24.90;82.60
39951;DHT22;25629;51.444;-2.606;2022-08-05T12:53:47;25.30;81.90
39951;DHT22;25629;51.444;-2.606;2022-08-05T12:56:22;25.00;82.20
39951;DHT22;25629;51.444;-2.606;2022-08-05T13:01:53;24.40;81.90
39951;DHT22;25629;51.444;-2.606;2022-08-05T13:04:20;24.30;82.50
39951;DHT22;25629;51.444;-2.606;2022-08-05T13:06:45;24.20;83.00
39951;DHT22;25629;51.444;-2.606;2022-08-05T13:09:12;24.00;82.50
39951;DHT22;25629;51.444;-2.606;2022-08-05T13:11:41;23.60;81.80
39951;DHT22;25629;51.444;-2.606;2022-08-05T13:14:14;23.30;83.20
39951;DHT22;25629;51.444;-2.606;2022-08-05T13:16:45;23.80;83.10
39951;DHT22;25629;51.444;-2.606;2022-08-05T13:19:11;24.90;82.10
39951;DHT22;25629;51.444;-2.606;2022-08-05T13:21:37;25.20;82.60
39951;DHT22;25629;51.444;-2.606;2022-08-05T13:24:02;25.10;80.80
39951;DHT22;25629;51.444;-2.606;2022-08-05T13:26:28;25.00;81.30
39951;DHT22;25629;51.444;-2.606;2022-08-05T13:28:54;25.90;80.10
39951;DHT22;25629;51.444;-2.606;2022-08-05T13:31:20;26.90;78.40
39951;DHT22;25629;51.444;-2.606;2022-08-05T13:33:46;27.30;78.30
39951;DHT22;25629;51.444;-2.606;2022-08-05T13:36:11;26.90;77.20
39951;DHT22;25629;51.444;-2.606;2022-08-05T13:38:38;26.20;78.70
39951;DHT22;25629;51.444;-2.606;2022-08-05T13:41:03;25.20;79.70
39951;DHT22;25629;51.444;-2.606;2022-08-05T13:43:29;25.00;80.30
39951;DHT22;25629;51.444;-2.606;2022-08-05T13:45:55;25.70;79.50
39951;DHT22;25629;51.444;-2.606;2022-08-05T13:48:20;26.40;79.00
39951;DHT22;25629;51.444;-2.606;2022-08-05T13:50:46;27.00;78.60
39951;DHT22;25629;51.444;-2.606;2022-08-05T13:53:12;27.50;78.10
39951;DHT22;25629;51.444;-2.606;2022-08-05T13:55:37;27.60;76.30
39951;DHT22;25629;51.444;-2.606;2022-08-05T13:58:03;28.00;76.50
39951;DHT22;25629;51.444;-2.606;2022-08-05T14:00:28;28.40;76.30
39951;DHT22;25629;51.444;-2.606;2022-08-05T14:02:55;28.50;75.60
39951;DHT22;25629;51.444;-2.606;2022-08-05T14:05:20;27.60;76.00
39951;DHT22;25629;51.444;-2.606;2022-08-05T14:07:46;26.60;77.30
39951;DHT22;25629;51.444;-2.606;2022-08-05T14:10:16;25.70;78.80
39951;DHT22;25629;51.444;-2.606;2022-08-05T14:12:42;24.80;79.90
39951;DHT22;25629;51.444;-2.606;2022-08-05T14:15:08;24.10;78.20
39951;DHT22;25629;51.444;-2.606;2022-08-05T14:17:34;24.50;80.30
39951;DHT22;25629;51.444;-2.606;2022-08-05T14:19:59;25.00;80.00
39951;DHT22;25629;51.444;-2.606;2022-08-05T14:22:25;24.80;78.80
39951;DHT22;25629;51.444;-2.606;2022-08-05T14:24:50;24.10;78.80
39951;DHT22;25629;51.444;-2.606;2022-08-05T14:27:16;23.60;80.50
39951;DHT22;25629;51.444;-2.606;2022-08-05T14:29:42;23.20;81.10
39951;DHT22;25629;51.444;-2.606;2022-08-05T14:32:07;23.50;81.30
39951;DHT22;25629;51.444;-2.606;2022-08-05T14:34:33;24.90;80.60
39951;DHT22;25629;51.444;-2.606;2022-08-05T14:36:59;26.60;77.70
39951;DHT22;25629;51.444;-2.606;2022-08-05T14:39:24;28.20;75.50
39951;DHT22;25629;51.444;-2.606;2022-08-05T14:41:50;28.90;74.80
39951;DHT22;25629;51.444;-2.606;2022-08-05T14:44:16;28.70;73.60
39951;DHT22;25629;51.444;-2.606;2022-08-05T14:46:41;27.30;73.90
39951;DHT22;25629;51.444;-2.606;2022-08-05T14:49:07;26.10;75.60
39951;DHT22;25629;51.444;-2.606;2022-08-05T14:51:36;25.60;77.10
39951;DHT22;25629;51.444;-2.606;2022-08-05T14:54:02;25.90;77.30
39951;DHT22;25629;51.444;-2.606;2022-08-05T14:56:28;26.10;77.30
39951;DHT22;25629;51.444;-2.606;2022-08-05T14:58:53;25.30;77.40
39951;DHT22;25629;51.444;-2.606;2022-08-05T15:01:19;24.60;78.30
39951;DHT22;25629;51.444;-2.606;2022-08-05T15:03:45;24.20;78.70
39951;DHT22;25629;51.444;-2.606;2022-08-05T15:06:10;23.70;79.40
39951;DHT22;25629;51.444;-2.606;2022-08-05T15:08:36;23.40;78.00
39951;DHT22;25629;51.444;-2.606;2022-08-05T15:11:01;23.40;78.90
39951;DHT22;25629;51.444;-2.606;2022-08-05T15:13:27;23.80;79.20
39951;DHT22;25629;51.444;-2.606;2022-08-05T15:15:53;24.90;78.40
39951;DHT22;25629;51.444;-2.606;2022-08-05T15:18:18;26.40;76.30
39951;DHT22;25629;51.444;-2.606;2022-08-05T15:20:44;28.20;74.70
39951;DHT22;25629;51.444;-2.606;2022-08-05T15:23:10;29.20;73.30
39951;DHT22;25629;51.444;-2.606;2022-08-05T15:25:36;29.60;73.10
39951;DHT22;25629;51.444;-2.606;2022-08-05T15:28:02;29.80;72.60
39951;DHT22;25629;51.444;-2.606;2022-08-05T15:30:28;29.40;72.40
39951;DHT22;25629;51.444;-2.606;2022-08-05T15:32:56;29.10;72.70
39951;DHT22;25629;51.444;-2.606;2022-08-05T15:35:22;28.50;73.00
39951;DHT22;25629;51.444;-2.606;2022-08-05T15:37:48;29.10;73.00
39951;DHT22;25629;51.444;-2.606;2022-08-05T15:40:14;29.50;72.50
39951;DHT22;25629;51.444;-2.606;2022-08-05T15:42:39;29.70;71.60
39951;DHT22;25629;51.444;-2.606;2022-08-05T15:45:05;29.70;71.40
39951;DHT22;25629;51.444;-2.606;2022-08-05T15:47:31;29.90;71.30
39951;DHT22;25629;51.444;-2.606;2022-08-05T15:49:56;30.30;71.00
39951;DHT22;25629;51.444;-2.606;2022-08-05T15:52:22;30.80;70.10
39951;DHT22;25629;51.444;-2.606;2022-08-05T15:54:48;30.70;69.90
39951;DHT22;25629;51.444;-2.606;2022-08-05T15:57:14;30.50;69.20